Pelham, Texas
Current Conditions -  °F | °C
As of 10:51 PM on Monday 22 Dec 2014 (Local Time) from KCNW Reporting Station
Clear Clear  
Wind Chill: 54°   Ceiling: Unl
Heat Index: 54°   Visibility: 10mi
Dew Point: 45°   Wind: 5mph
Humidity: 72%   Direction: 340°NNW
Pressure: 29.68"   Gusts: NA
Location:  31.8345°N, 96.8135°W
Report Text: KCNW 230451Z 34004KT 10SM SKC 12/07 A2968
Loading
Personal Weather Stations






























Interactive Weather Map New forecast layout! Learn more

10-Day Weather Forecast

Advertisements
Track Severe Weather on mobile